sensor_id;sensor_type;location;lat;lon;timestamp;pressure;altitude;pressure_sealevel;temperature;humidity
62725;BME280;49026;52.600;4.694;2023-05-07T00:00:45;101645.78;;;13.27;73.83
62725;BME280;49026;52.600;4.694;2023-05-07T00:03:11;101634.31;;;13.28;73.13
62725;BME280;49026;52.600;4.694;2023-05-07T00:05:36;101637.75;;;13.30;73.85
62725;BME280;49026;52.600;4.694;2023-05-07T00:08:05;101635.94;;;13.32;72.55
62725;BME280;49026;52.600;4.694;2023-05-07T00:10:33;101643.00;;;13.32;74.23
62725;BME280;49026;52.600;4.694;2023-05-07T00:12:58;101641.22;;;13.32;72.13
62725;BME280;49026;52.600;4.694;2023-05-07T00:15:23;101645.56;;;13.33;75.39
62725;BME280;49026;52.600;4.694;2023-05-07T00:17:51;101647.28;;;13.34;76.51
62725;BME280;49026;52.600;4.694;2023-05-07T00:20:17;101636.72;;;13.34;72.61
62725;BME280;49026;52.600;4.694;2023-05-07T00:22:44;101640.19;;;13.37;71.11
62725;BME280;49026;52.600;4.694;2023-05-07T00:25:11;101643.63;;;13.39;70.51
62725;BME280;49026;52.600;4.694;2023-05-07T00:27:39;101638.34;;;13.39;72.55
62725;BME280;49026;52.600;4.694;2023-05-07T00:30:07;101634.84;;;13.38;72.10
62725;BME280;49026;52.600;4.694;2023-05-07T00:32:33;101640.19;;;13.37;72.94
62725;BME280;49026;52.600;4.694;2023-05-07T00:34:58;101629.69;;;13.35;70.91
62725;BME280;49026;52.600;4.694;2023-05-07T00:37:23;101637.72;;;13.32;73.09
62725;BME280;49026;52.600;4.694;2023-05-07T00:39:53;101636.00;;;13.29;71.05
62725;BME280;49026;52.600;4.694;2023-05-07T00:42:18;101640.56;;;13.26;72.77
62725;BME280;49026;52.600;4.694;2023-05-07T00:44:44;101630.16;;;13.21;74.49
62725;BME280;49026;52.600;4.694;2023-05-07T00:47:11;101630.31;;;13.18;74.49
62725;BME280;49026;52.600;4.694;2023-05-07T00:49:39;101632.13;;;13.16;71.57
62725;BME280;49026;52.600;4.694;2023-05-07T00:52:07;101638.34;;;13.15;72.97
62725;BME280;49026;52.600;4.694;2023-05-07T00:54:34;101639.25;;;13.14;72.90
62725;BME280;49026;52.600;4.694;2023-05-07T00:56:59;101641.88;;;13.14;72.56
62725;BME280;49026;52.600;4.694;2023-05-07T00:59:25;101638.34;;;13.15;75.70
62725;BME280;49026;52.600;4.694;2023-05-07T01:01:51;101633.13;;;13.13;79.41
62725;BME280;49026;52.600;4.694;2023-05-07T01:04:17;101627.91;;;13.12;78.29
62725;BME280;49026;52.600;4.694;2023-05-07T01:06:44;101627.09;;;13.10;81.79
62725;BME280;49026;52.600;4.694;2023-05-07T01:09:10;101622.72;;;13.09;79.17
62725;BME280;49026;52.600;4.694;2023-05-07T01:11:38;101619.25;;;13.08;87.70
62725;BME280;49026;52.600;4.694;2023-05-07T01:14:05;101619.41;;;13.04;88.30
62725;BME280;49026;52.600;4.694;2023-05-07T01:16:31;101620.44;;;13.00;84.05
62725;BME280;49026;52.600;4.694;2023-05-07T01:18:56;101620.44;;;13.00;79.92
62725;BME280;49026;52.600;4.694;2023-05-07T01:21:25;101623.16;;;12.98;75.83
62725;BME280;49026;52.600;4.694;2023-05-07T01:23:52;101623.16;;;12.98;74.65
62725;BME280;49026;52.600;4.694;2023-05-07T01:26:20;101627.53;;;12.97;73.23
62725;BME280;49026;52.600;4.694;2023-05-07T01:28:45;101626.63;;;12.98;72.33
62725;BME280;49026;52.600;4.694;2023-05-07T01:31:12;101624.84;;;12.99;73.09
62725;BME280;49026;52.600;4.694;2023-05-07T01:33:40;101630.19;;;12.97;74.36
62725;BME280;49026;52.600;4.694;2023-05-07T01:36:10;101632.81;;;12.97;73.85
62725;BME280;49026;52.600;4.694;2023-05-07T01:38:37;101625.78;;;12.98;72.56
62725;BME280;49026;52.600;4.694;2023-05-07T01:41:06;101626.63;;;12.98;71.80
62725;BME280;49026;52.600;4.694;2023-05-07T01:43:32;101625.69;;;13.00;72.67
62725;BME280;49026;52.600;4.694;2023-05-07T01:45:58;101621.25;;;13.02;72.13
62725;BME280;49026;52.600;4.694;2023-05-07T01:48:25;101627.38;;;13.02;72.23
62725;BME280;49026;52.600;4.694;2023-05-07T01:50:51;101620.31;;;13.03;73.51
62725;BME280;49026;52.600;4.694;2023-05-07T01:53:16;101624.75;;;13.02;72.61
62725;BME280;49026;52.600;4.694;2023-05-07T01:55:44;101616.78;;;13.04;72.81
62725;BME280;49026;52.600;4.694;2023-05-07T01:58:10;101620.19;;;13.06;72.12
62725;BME280;49026;52.600;4.694;2023-05-07T02:00:35;101622.78;;;13.07;71.87
62725;BME280;49026;52.600;4.694;2023-05-07T02:03:01;101619.25;;;13.08;72.02
62725;BME280;49026;52.600;4.694;2023-05-07T02:05:26;101620.94;;;13.09;71.22
62725;BME280;49026;52.600;4.694;2023-05-07T02:07:54;101623.53;;;13.11;71.70
62725;BME280;49026;52.600;4.694;2023-05-07T02:10:19;101627.09;;;13.10;73.40
62725;BME280;49026;52.600;4.694;2023-05-07T02:12:44;101624.47;;;13.10;73.44
62725;BME280;49026;52.600;4.694;2023-05-07T02:15:12;101621.88;;;13.08;74.54
62725;BME280;49026;52.600;4.694;2023-05-07T02:18:04;101632.38;;;13.10;73.10
62725;BME280;49026;52.600;4.694;2023-05-07T02:20:32;101623.63;;;13.08;75.82
62725;BME280;49026;52.600;4.694;2023-05-07T02:23:02;101613.22;;;13.05;77.81
62725;BME280;49026;52.600;4.694;2023-05-07T02:25:27;101618.63;;;13.02;80.42
62725;BME280;49026;52.600;4.694;2023-05-07T02:27:55;101619.53;;;13.01;79.58
62725;BME280;49026;52.600;4.694;2023-05-07T02:30:20;101615.16;;;13.00;77.97
62725;BME280;49026;52.600;4.694;2023-05-07T02:32:48;101607.38;;;12.96;80.34
62725;BME280;49026;52.600;4.694;2023-05-07T02:35:16;101615.41;;;12.93;81.37
62725;BME280;49026;52.600;4.694;2023-05-07T02:37:42;101614.59;;;12.91;78.75
62725;BME280;49026;52.600;4.694;2023-05-07T02:40:08;101619.00;;;12.91;76.90
62725;BME280;49026;52.600;4.694;2023-05-07T02:42:35;101622.56;;;12.90;75.27
62725;BME280;49026;52.600;4.694;2023-05-07T02:45:01;101629.59;;;12.89;77.53
62725;BME280;49026;52.600;4.694;2023-05-07T02:47:26;101629.59;;;12.89;75.43
62725;BME280;49026;52.600;4.694;2023-05-07T02:49:54;101626.97;;;12.89;76.68
62725;BME280;49026;52.600;4.694;2023-05-07T02:52:20;101630.53;;;12.88;81.48
62725;BME280;49026;52.600;4.694;2023-05-07T02:54:45;101626.97;;;12.89;79.39
62725;BME280;49026;52.600;4.694;2023-05-07T02:57:10;101627.91;;;12.88;79.50
62725;BME280;49026;52.600;4.694;2023-05-07T02:59:35;101625.28;;;12.88;82.67
62725;BME280;49026;52.600;4.694;2023-05-07T03:02:01;101627.03;;;12.88;80.06
62725;BME280;49026;52.600;4.694;2023-05-07T03:04:26;101622.63;;;12.88;77.76
62725;BME280;49026;52.600;4.694;2023-05-07T03:06:52;101628.75;;;12.89;76.80
62725;BME280;49026;52.600;4.694;2023-05-07T03:09:17;101628.69;;;12.90;76.35
62725;BME280;49026;52.600;4.694;2023-05-07T03:11:42;101625.22;;;12.90;77.02
62725;BME280;49026;52.600;4.694;2023-05-07T03:14:08;101633.94;;;12.92;75.12
62725;BME280;49026;52.600;4.694;2023-05-07T03:16:33;101624.22;;;12.92;73.41
62725;BME280;49026;52.600;4.694;2023-05-07T03:18:58;101629.50;;;12.92;73.34
62725;BME280;49026;52.600;4.694;2023-05-07T03:21:23;101621.59;;;12.92;72.62
62725;BME280;49026;52.600;4.694;2023-05-07T03:23:51;101623.38;;;12.92;74.16
62725;BME280;49026;52.600;4.694;2023-05-07T03:26:17;101626.88;;;12.92;72.86
62725;BME280;49026;52.600;4.694;2023-05-07T03:28:42;101616.41;;;12.89;72.57
62725;BME280;49026;52.600;4.694;2023-05-07T03:31:08;101610.34;;;12.87;73.13
62725;BME280;49026;52.600;4.694;2023-05-07T03:33:34;101610.47;;;12.84;75.45
62725;BME280;49026;52.600;4.694;2023-05-07T03:36:00;101616.72;;;12.82;73.89
62725;BME280;49026;52.600;4.694;2023-05-07T03:38:25;101611.63;;;12.77;73.40
62725;BME280;49026;52.600;4.694;2023-05-07T03:40:53;101611.72;;;12.74;73.35
62725;BME280;49026;52.600;4.694;2023-05-07T03:43:18;101609.19;;;12.71;73.77
62725;BME280;49026;52.600;4.694;2023-05-07T03:45:43;101609.31;;;12.68;72.86
62725;BME280;49026;52.600;4.694;2023-05-07T03:48:09;101612.06;;;12.65;73.62
62725;BME280;49026;52.600;4.694;2023-05-07T03:50:34;101610.34;;;12.64;74.22
62725;BME280;49026;52.600;4.694;2023-05-07T03:52:59;101606.91;;;12.62;76.00
62725;BME280;49026;52.600;4.694;2023-05-07T03:55:25;101604.31;;;12.60;73.57
62725;BME280;49026;52.600;4.694;2023-05-07T03:57:50;101608.81;;;12.58;78.15
62725;BME280;49026;52.600;4.694;2023-05-07T04:00:16;101610.56;;;12.57;79.44
62725;BME280;49026;52.600;4.694;2023-05-07T04:02:41;101610.56;;;12.57;79.66
62725;BME280;49026;52.600;4.694;2023-05-07T04:05:07;101609.72;;;12.57;81.42
62725;BME280;49026;52.600;4.694;2023-05-07T04:07:41;101612.34;;;12.57;79.36
62725;BME280;49026;52.600;4.694;2023-05-07T04:10:07;101614.06;;;12.58;80.32
62725;BME280;49026;52.600;4.694;2023-05-07T04:12:35;101614.94;;;12.58;76.12
62725;BME280;49026;52.600;4.694;2023-05-07T04:15:02;101619.25;;;12.59;74.31
62725;BME280;49026;52.600;4.694;2023-05-07T04:17:30;101618.41;;;12.59;73.08
62725;BME280;49026;52.600;4.694;2023-05-07T04:19:55;101617.47;;;12.62;72.83
62725;BME280;49026;52.600;4.694;2023-05-07T04:22:20;101622.69;;;12.63;72.99
62725;BME280;49026;52.600;4.694;2023-05-07T04:24:51;101630.53;;;12.65;72.97
62725;BME280;49026;52.600;4.694;2023-05-07T04:27:18;101621.69;;;12.66;72.72
62725;BME280;49026;52.600;4.694;2023-05-07T04:29:44;101626.91;;;12.67;72.61
62725;BME280;49026;52.600;4.694;2023-05-07T04:32:12;101626.00;;;12.68;72.77
62725;BME280;49026;52.600;4.694;2023-05-07T04:34:40;101627.75;;;12.68;72.70
62725;BME280;49026;52.600;4.694;2023-05-07T04:37:06;101634.72;;;12.70;73.11
62725;BME280;49026;52.600;4.694;2023-05-07T04:39:32;101644.28;;;12.73;72.86
62725;BME280;49026;52.600;4.694;2023-05-07T04:41:57;101641.59;;;12.74;72.75
62725;BME280;49026;52.600;4.694;2023-05-07T04:44:23;101644.13;;;12.77;72.90
62725;BME280;49026;52.600;4.694;2023-05-07T04:46:50;101643.94;;;12.82;72.91
62725;BME280;49026;52.600;4.694;2023-05-07T04:49:15;101642.91;;;12.86;72.71
62725;BME280;49026;52.600;4.694;2023-05-07T04:51:41;101641.88;;;12.90;73.05
62725;BME280;49026;52.600;4.694;2023-05-07T04:54:08;101648.75;;;12.94;73.23
62725;BME280;49026;52.600;4.694;2023-05-07T04:56:33;101643.38;;;12.97;73.03
62725;BME280;49026;52.600;4.694;2023-05-07T04:58:58;101641.47;;;13.01;72.88
62725;BME280;49026;52.600;4.694;2023-05-07T05:01:36;101639.59;;;13.05;73.44
62725;BME280;49026;52.600;4.694;2023-05-07T05:04:03;101645.63;;;13.08;73.08
62725;BME280;49026;52.600;4.694;2023-05-07T05:06:29;101648.16;;;13.11;73.22
62725;BME280;49026;52.600;4.694;2023-05-07T05:08:54;101658.50;;;13.16;73.49
62725;BME280;49026;52.600;4.694;2023-05-07T05:11:19;101658.34;;;13.21;73.57
62725;BME280;49026;52.600;4.694;2023-05-07T05:13:45;101655.47;;;13.27;73.68
62725;BME280;49026;52.600;4.694;2023-05-07T05:16:13;101661.41;;;13.33;73.46
62725;BME280;49026;52.600;4.694;2023-05-07T05:18:38;101654.19;;;13.39;73.43
62725;BME280;49026;52.600;4.694;2023-05-07T05:21:05;101663.63;;;13.44;73.93
62725;BME280;49026;52.600;4.694;2023-05-07T05:23:31;101665.13;;;13.51;73.99
62725;BME280;49026;52.600;4.694;2023-05-07T05:25:57;101657.88;;;13.57;74.16
62725;BME280;49026;52.600;4.694;2023-05-07T05:28:22;101665.47;;;13.64;74.08
62725;BME280;49026;52.600;4.694;2023-05-07T05:30:48;101660.88;;;13.69;73.95
62725;BME280;49026;52.600;4.694;2023-05-07T05:33:13;101666.88;;;13.73;73.77
62725;BME280;49026;52.600;4.694;2023-05-07T05:35:39;101678.28;;;13.75;74.01
62725;BME280;49026;52.600;4.694;2023-05-07T05:38:06;101672.88;;;13.78;74.83
62725;BME280;49026;52.600;4.694;2023-05-07T05:40:32;101679.00;;;13.79;74.74
62725;BME280;49026;52.600;4.694;2023-05-07T05:42:58;101678.94;;;13.80;74.30
62725;BME280;49026;52.600;4.694;2023-05-07T05:45:25;101687.59;;;13.84;74.18
62725;BME280;49026;52.600;4.694;2023-05-07T05:47:51;101680.53;;;13.84;74.66
62725;BME280;49026;52.600;4.694;2023-05-07T05:50:16;101683.03;;;13.87;74.58
62725;BME280;49026;52.600;4.694;2023-05-07T05:52:42;101695.28;;;13.90;74.80
62725;BME280;49026;52.600;4.694;2023-05-07T05:55:08;101687.31;;;13.92;74.47
62725;BME280;49026;52.600;4.694;2023-05-07T05:57:33;101685.50;;;13.92;77.57
62725;BME280;49026;52.600;4.694;2023-05-07T06:00:02;101692.38;;;13.96;76.17
62725;BME280;49026;52.600;4.694;2023-05-07T06:02:27;101691.47;;;13.97;77.93
62725;BME280;49026;52.600;4.694;2023-05-07T06:04:53;101701.91;;;14.00;76.53
62725;BME280;49026;52.600;4.694;2023-05-07T06:07:23;101691.91;;;14.08;74.96
62725;BME280;49026;52.600;4.694;2023-05-07T06:09:48;101697.78;;;14.15;76.02
62725;BME280;49026;52.600;4.694;2023-05-07T06:12:13;101697.66;;;14.18;75.73
62725;BME280;49026;52.600;4.694;2023-05-07T06:14:38;101700.03;;;14.24;75.62
62725;BME280;49026;52.600;4.694;2023-05-07T06:17:04;101705.00;;;14.32;76.74
62725;BME280;49026;52.600;4.694;2023-05-07T06:19:30;101706.59;;;14.36;77.39
62725;BME280;49026;52.600;4.694;2023-05-07T06:21:58;101701.84;;;14.44;75.74
62725;BME280;49026;52.600;4.694;2023-05-07T06:24:24;101700.66;;;14.52;78.01
62725;BME280;49026;52.600;4.694;2023-05-07T06:26:49;101711.78;;;14.60;76.97
62725;BME280;49026;52.600;4.694;2023-05-07T06:29:14;101708.63;;;14.72;79.11
62725;BME280;49026;52.600;4.694;2023-05-07T06:31:40;101713.34;;;14.85;76.86
62725;BME280;49026;52.600;4.694;2023-05-07T06:34:07;101716.47;;;14.94;84.45
62725;BME280;49026;52.600;4.694;2023-05-07T06:36:32;101713.75;;;14.96;84.26
62725;BME280;49026;52.600;4.694;2023-05-07T06:38:58;101710.69;;;15.05;84.06
62725;BME280;49026;52.600;4.694;2023-05-07T06:41:23;101714.97;;;15.08;84.07
62725;BME280;49026;52.600;4.694;2023-05-07T06:43:48;101721.13;;;15.08;83.54
62725;BME280;49026;52.600;4.694;2023-05-07T06:46:16;101713.94;;;15.12;82.82
62725;BME280;49026;52.600;4.694;2023-05-07T06:48:41;101723.44;;;15.16;81.71
62725;BME280;49026;52.600;4.694;2023-05-07T06:51:09;101706.25;;;15.25;81.36
62725;BME280;49026;52.600;4.694;2023-05-07T06:53:35;101713.88;;;15.32;81.96
62725;BME280;49026;52.600;4.694;2023-05-07T06:56:00;101713.50;;;15.40;82.02
62725;BME280;49026;52.600;4.694;2023-05-07T06:58:28;101710.41;;;15.68;81.70
62725;BME280;49026;52.600;4.694;2023-05-07T07:00:53;101709.81;;;16.00;81.75
62725;BME280;49026;52.600;4.694;2023-05-07T07:03:18;101703.13;;;16.45;80.45
62725;BME280;49026;52.600;4.694;2023-05-07T07:05:44;101702.75;;;16.88;80.19
62725;BME280;49026;52.600;4.694;2023-05-07T07:08:10;101704.81;;;16.98;79.24
62725;BME280;49026;52.600;4.694;2023-05-07T07:10:35;101705.31;;;16.89;79.17
62725;BME280;49026;52.600;4.694;2023-05-07T07:13:00;101704.16;;;16.77;78.79
62725;BME280;49026;52.600;4.694;2023-05-07T07:15:26;101700.22;;;16.67;78.79
62725;BME280;49026;52.600;4.694;2023-05-07T07:17:51;101705.66;;;16.48;78.50
62725;BME280;49026;52.600;4.694;2023-05-07T07:20:16;101702.47;;;16.24;79.36
62725;BME280;49026;52.600;4.694;2023-05-07T07:22:42;101703.81;;;16.14;78.86
62725;BME280;49026;52.600;4.694;2023-05-07T07:25:11;101715.91;;;16.02;79.12
62725;BME280;49026;52.600;4.694;2023-05-07T07:27:37;101712.19;;;15.87;79.49
62725;BME280;49026;52.600;4.694;2023-05-07T07:30:08;101708.31;;;15.75;80.25
62725;BME280;49026;52.600;4.694;2023-05-07T07:32:34;101712.34;;;15.65;81.64
62725;BME280;49026;52.600;4.694;2023-05-07T07:34:59;101717.50;;;15.68;81.88
62725;BME280;49026;52.600;4.694;2023-05-07T07:37:27;101715.41;;;15.93;82.06
62725;BME280;49026;52.600;4.694;2023-05-07T07:39:54;101726.53;;;16.19;81.66
62725;BME280;49026;52.600;4.694;2023-05-07T07:42:20;101717.50;;;16.58;81.97
62725;BME280;49026;52.600;4.694;2023-05-07T07:44:45;101716.41;;;16.97;80.71
62725;BME280;49026;52.600;4.694;2023-05-07T07:47:10;101719.75;;;17.17;79.55
62725;BME280;49026;52.600;4.694;2023-05-07T07:49:35;101720.66;;;17.33;80.19
62725;BME280;49026;52.600;4.694;2023-05-07T07:52:09;101718.41;;;17.26;78.95
62725;BME280;49026;52.600;4.694;2023-05-07T07:54:34;101716.34;;;17.15;79.34
62725;BME280;49026;52.600;4.694;2023-05-07T07:57:02;101720.72;;;17.16;79.60
62725;BME280;49026;52.600;4.694;2023-05-07T07:59:29;101717.22;;;17.31;79.59
62725;BME280;49026;52.600;4.694;2023-05-07T08:01:57;101717.06;;;17.34;77.66
62725;BME280;49026;52.600;4.694;2023-05-07T08:04:22;101721.41;;;17.35;78.49
62725;BME280;49026;52.600;4.694;2023-05-07T08:06:48;101718.28;;;17.45;78.39
62725;BME280;49026;52.600;4.694;2023-05-07T08:09:13;101721.19;;;17.56;78.24
62725;BME280;49026;52.600;4.694;2023-05-07T08:11:39;101717.66;;;17.71;78.49
62725;BME280;49026;52.600;4.694;2023-05-07T08:14:06;101710.50;;;17.89;77.58
62725;BME280;49026;52.600;4.694;2023-05-07T08:16:32;101724.09;;;17.99;78.53
62725;BME280;49026;52.600;4.694;2023-05-07T08:18:57;101719.03;;;18.10;78.32
62725;BME280;49026;52.600;4.694;2023-05-07T08:21:25;101718.91;;;18.28;77.67
62725;BME280;49026;52.600;4.694;2023-05-07T08:23:51;101715.47;;;18.26;73.92
62725;BME280;49026;52.600;4.694;2023-05-07T08:26:18;101727.97;;;18.40;76.34
62725;BME280;49026;52.600;4.694;2023-05-07T08:28:43;101724.97;;;18.60;77.19
62725;BME280;49026;52.600;4.694;2023-05-07T08:31:09;101723.94;;;18.77;75.58
62725;BME280;49026;52.600;4.694;2023-05-07T08:33:34;101726.75;;;18.90;76.39
62725;BME280;49026;52.600;4.694;2023-05-07T08:36:02;101737.13;;;19.09;74.59
62725;BME280;49026;52.600;4.694;2023-05-07T08:38:28;101735.03;;;19.29;76.19
62725;BME280;49026;52.600;4.694;2023-05-07T08:40:56;101736.16;;;19.53;75.49
62725;BME280;49026;52.600;4.694;2023-05-07T08:43:21;101741.06;;;19.88;75.33
62725;BME280;49026;52.600;4.694;2023-05-07T08:45:49;101747.03;;;20.19;72.43
62725;BME280;49026;52.600;4.694;2023-05-07T08:48:17;101743.41;;;20.20;72.14
62725;BME280;49026;52.600;4.694;2023-05-07T08:50:42;101748.34;;;20.39;72.09
62725;BME280;49026;52.600;4.694;2023-05-07T08:53:08;101752.00;;;20.51;72.08
62725;BME280;49026;52.600;4.694;2023-05-07T08:55:36;101749.34;;;20.51;71.19
62725;BME280;49026;52.600;4.694;2023-05-07T08:58:04;101754.28;;;20.57;71.07
62725;BME280;49026;52.600;4.694;2023-05-07T09:00:29;101752.53;;;20.43;68.66
62725;BME280;49026;52.600;4.694;2023-05-07T09:02:55;101746.66;;;20.51;71.10
62725;BME280;49026;52.600;4.694;2023-05-07T09:05:20;101737.03;;;20.76;70.36
62725;BME280;49026;52.600;4.694;2023-05-07T09:07:46;101758.19;;;20.79;69.18
62725;BME280;49026;52.600;4.694;2023-05-07T09:10:12;101750.38;;;20.76;69.74
62725;BME280;49026;52.600;4.694;2023-05-07T09:12:37;101742.91;;;20.94;70.66
62725;BME280;49026;52.600;4.694;2023-05-07T09:15:04;101748.31;;;21.18;68.46
62725;BME280;49026;52.600;4.694;2023-05-07T09:17:30;101744.66;;;21.44;71.41
62725;BME280;49026;52.600;4.694;2023-05-07T09:20:05;101749.97;;;21.70;65.14
62725;BME280;49026;52.600;4.694;2023-05-07T09:22:35;101751.53;;;21.86;65.37
62725;BME280;49026;52.600;4.694;2023-05-07T09:25:01;101749.84;;;21.72;67.41
62725;BME280;49026;52.600;4.694;2023-05-07T09:27:26;101747.25;;;21.83;68.43
62725;BME280;49026;52.600;4.694;2023-05-07T09:29:55;101751.91;;;22.16;69.02
62725;BME280;49026;52.600;4.694;2023-05-07T09:32:22;101737.28;;;22.33;67.31
62725;BME280;49026;52.600;4.694;2023-05-07T09:34:49;101751.31;;;22.37;67.35
62725;BME280;49026;52.600;4.694;2023-05-07T09:37:15;101744.81;;;22.64;63.72
62725;BME280;49026;52.600;4.694;2023-05-07T09:39:45;101752.97;;;22.62;66.23
62725;BME280;49026;52.600;4.694;2023-05-07T09:42:11;101756.91;;;22.81;60.56
62725;BME280;49026;52.600;4.694;2023-05-07T09:44:43;101749.25;;;22.87;65.42
62725;BME280;49026;52.600;4.694;2023-05-07T09:47:08;101754.34;;;23.02;60.24
62725;BME280;49026;52.600;4.694;2023-05-07T09:49:36;101751.22;;;23.08;62.35
62725;BME280;49026;52.600;4.694;2023-05-07T09:52:06;101756.59;;;23.19;64.26
62725;BME280;49026;52.600;4.694;2023-05-07T09:54:33;101750.38;;;23.41;52.13
62725;BME280;49026;52.600;4.694;2023-05-07T09:57:01;101753.75;;;23.66;64.21
62725;BME280;49026;52.600;4.694;2023-05-07T09:59:27;101760.88;;;24.11;65.19
62725;BME280;49026;52.600;4.694;2023-05-07T10:01:56;101753.38;;;24.47;62.77
62725;BME280;49026;52.600;4.694;2023-05-07T10:04:22;101756.69;;;24.71;63.02
62725;BME280;49026;52.600;4.694;2023-05-07T10:06:48;101746.97;;;24.80;61.31
62725;BME280;49026;52.600;4.694;2023-05-07T10:09:17;101752.78;;;24.43;60.39
62725;BME280;49026;52.600;4.694;2023-05-07T10:11:42;101754.41;;;24.02;59.35
62725;BME280;49026;52.600;4.694;2023-05-07T10:14:10;101755.50;;;23.44;56.37
62725;BME280;49026;52.600;4.694;2023-05-07T10:16:36;101753.06;;;23.41;60.56
62725;BME280;49026;52.600;4.694;2023-05-07T10:19:03;101757.56;;;23.41;59.87
62725;BME280;49026;52.600;4.694;2023-05-07T10:21:35;101759.41;;;23.29;59.02
62725;BME280;49026;52.600;4.694;2023-05-07T10:24:22;101756.78;;;23.05;51.59
62725;BME280;49026;52.600;4.694;2023-05-07T10:26:51;101753.78;;;23.09;58.76
62725;BME280;49026;52.600;4.694;2023-05-07T10:34:50;101757.91;;;23.02;58.27
62725;BME280;49026;52.600;4.694;2023-05-07T10:37:20;101763.63;;;22.98;58.93
62725;BME280;49026;52.600;4.694;2023-05-07T10:39:46;101769.69;;;22.88;59.08
62725;BME280;49026;52.600;4.694;2023-05-07T10:42:14;101763.25;;;22.91;59.39
62725;BME280;49026;52.600;4.694;2023-05-07T10:44:40;101765.31;;;22.99;59.55
62725;BME280;49026;52.600;4.694;2023-05-07T10:52:24;101772.69;;;23.19;59.12
62725;BME280;49026;52.600;4.694;2023-05-07T10:57:48;101763.66;;;23.20;58.07
62725;BME280;49026;52.600;4.694;2023-05-07T11:05:30;101767.69;;;23.26;58.27
62725;BME280;49026;52.600;4.694;2023-05-07T11:07:56;101769.97;;;23.42;58.58
62725;BME280;49026;52.600;4.694;2023-05-07T11:10:51;101771.34;;;23.25;57.92
62725;BME280;49026;52.600;4.694;2023-05-07T11:13:17;101774.88;;;23.14;59.94
62725;BME280;49026;52.600;4.694;2023-05-07T11:15:47;101770.19;;;23.05;60.59
62725;BME280;49026;52.600;4.694;2023-05-07T11:18:17;101777.97;;;22.97;60.96
62725;BME280;49026;52.600;4.694;2023-05-07T11:20:51;101770.72;;;22.63;57.90
62725;BME280;49026;52.600;4.694;2023-05-07T11:26:10;101777.88;;;22.03;61.30
62725;BME280;49026;52.600;4.694;2023-05-07T11:28:41;101772.00;;;21.98;62.27
62725;BME280;49026;52.600;4.694;2023-05-07T11:31:10;101781.44;;;22.04;62.43
62725;BME280;49026;52.600;4.694;2023-05-07T11:33:37;101775.72;;;21.84;61.77
62725;BME280;49026;52.600;4.694;2023-05-07T11:36:03;101782.31;;;21.54;62.42
62725;BME280;49026;52.600;4.694;2023-05-07T11:38:30;101781.22;;;21.44;62.64
62725;BME280;49026;52.600;4.694;2023-05-07T11:41:02;101781.38;;;21.17;62.81
62725;BME280;49026;52.600;4.694;2023-05-07T11:43:31;101775.69;;;20.96;62.68
62725;BME280;49026;52.600;4.694;2023-05-07T11:46:14;101779.94;;;20.72;63.32
62725;BME280;49026;52.600;4.694;2023-05-07T11:48:39;101786.47;;;20.68;63.36
62725;BME280;49026;52.600;4.694;2023-05-07T11:51:06;101790.84;;;20.69;63.61
62725;BME280;49026;52.600;4.694;2023-05-07T11:53:36;101798.38;;;20.50;63.14
62725;BME280;49026;52.600;4.694;2023-05-07T11:56:09;101802.84;;;20.22;63.08
62725;BME280;49026;52.600;4.694;2023-05-07T11:58:35;101796.97;;;19.90;62.06
62725;BME280;49026;52.600;4.694;2023-05-07T12:01:01;101804.22;;;19.44;61.84
62725;BME280;49026;52.600;4.694;2023-05-07T12:03:27;101806.09;;;19.14;62.55
62725;BME280;49026;52.600;4.694;2023-05-07T12:05:52;101810.06;;;18.92;61.99
62725;BME280;49026;52.600;4.694;2023-05-07T12:08:19;101813.38;;;18.65;61.88
62725;BME280;49026;52.600;4.694;2023-05-07T12:10:49;101814.78;;;18.26;62.36
62725;BME280;49026;52.600;4.694;2023-05-07T12:13:19;101809.81;;;17.88;63.14
62725;BME280;49026;52.600;4.694;2023-05-07T12:15:47;101815.66;;;17.62;63.67
62725;BME280;49026;52.600;4.694;2023-05-07T12:18:15;101809.00;;;17.37;64.23
62725;BME280;49026;52.600;4.694;2023-05-07T12:20:40;101811.47;;;17.24;65.21
62725;BME280;49026;52.600;4.694;2023-05-07T12:23:06;101813.66;;;17.16;65.74
62725;BME280;49026;52.600;4.694;2023-05-07T12:25:35;101804.75;;;17.17;65.77
62725;BME280;49026;52.600;4.694;2023-05-07T12:28:04;101807.09;;;17.23;65.76
62725;BME280;49026;52.600;4.694;2023-05-07T12:30:37;101808.00;;;17.22;65.92
62725;BME280;49026;52.600;4.694;2023-05-07T12:33:03;101811.09;;;17.14;65.83
62725;BME280;49026;52.600;4.694;2023-05-07T12:35:36;101811.94;;;17.15;66.22
62725;BME280;49026;52.600;4.694;2023-05-07T12:38:01;101808.00;;;17.22;65.85
62725;BME280;49026;52.600;4.694;2023-05-07T12:40:55;101803.28;;;17.45;66.72
62725;BME280;49026;52.600;4.694;2023-05-07T12:43:24;101804.19;;;17.61;66.29
62725;BME280;49026;52.600;4.694;2023-05-07T12:45:50;101803.69;;;17.86;66.99
62725;BME280;49026;52.600;4.694;2023-05-07T12:48:16;101802.34;;;18.11;67.05
62725;BME280;49026;52.600;4.694;2023-05-07T12:50:42;101816.66;;;18.08;68.16
62725;BME280;49026;52.600;4.694;2023-05-07T12:53:09;101817.44;;;17.94;67.47
62725;BME280;49026;52.600;4.694;2023-05-07T12:55:44;101820.88;;;17.96;68.07
62725;BME280;49026;52.600;4.694;2023-05-07T12:58:17;101827.47;;;18.05;69.29
62725;BME280;49026;52.600;4.694;2023-05-07T13:00:44;101832.03;;;18.03;69.98
62725;BME280;49026;52.600;4.694;2023-05-07T13:03:15;101845.28;;;17.87;70.61
62725;BME280;49026;52.600;4.694;2023-05-07T13:05:45;101846.44;;;17.66;69.64
62725;BME280;49026;52.600;4.694;2023-05-07T13:08:10;101858.78;;;17.51;70.38
62725;BME280;49026;52.600;4.694;2023-05-07T13:10:36;101860.66;;;17.31;70.39